Time;durP1;ratioP1;P1;durP2;ratioP2;P2;SDS_P1;SDS_P2;PMS_P1;PMS_P2;Temp;Humidity;BMP_temperature;BMP_pressure;BME280_temperature;BME280_humidity;BME280_pressure;Samples;Min_cycle;Max_cycle;Signal;HPM_P1;HPM_P2
2023/05/31 00:00:51;;;;;;;6.30;5.70;;;;;;;10.14;100.00;102748.56;5018041;28;20416;-44
2023/05/31 00:03:19;;;;;;;6.83;5.13;;;;;;;10.12;100.00;102755.84;5019145;28;20445;-48
2023/05/31 00:05:47;;;;;;;10.00;6.13;;;;;;;10.08;100.00;102744.63;5011637;28;20523;-44
2023/05/31 00:08:15;;;;;;;7.90;5.27;;;;;;;10.07;100.00;102750.09;5019636;28;20461;-42
2023/05/31 00:10:43;;;;;;;9.10;5.87;;;;;;;10.05;100.00;102744.91;5019238;28;20453;-42
2023/05/31 00:13:13;;;;;;;8.40;5.43;;;;;;;10.04;100.00;102743.22;5020047;28;20437;-44
2023/05/31 00:15:41;;;;;;;8.10;5.47;;;;;;;10.02;100.00;102748.72;5018590;28;20493;-46
2023/05/31 00:18:09;;;;;;;9.20;6.17;;;;;;;9.97;100.00;102756.28;5018914;28;20524;-44
2023/05/31 00:20:37;;;;;;;7.87;6.13;;;;;;;9.93;100.00;102751.41;5019360;28;20437;-48
2023/05/31 00:23:04;;;;;;;7.90;6.77;;;;;;;9.91;100.00;102750.72;5019424;28;20479;-43
2023/05/31 00:25:32;;;;;;;7.53;6.00;;;;;;;9.87;100.00;102750.16;5015448;28;20453;-42
2023/05/31 00:28:01;;;;;;;8.43;6.70;;;;;;;9.83;100.00;102750.56;5018555;28;20984;-44
2023/05/31 00:30:30;;;;;;;10.10;7.40;;;;;;;9.79;100.00;102742.03;5018704;28;20437;-42
2023/05/31 00:32:57;;;;;;;6.70;5.93;;;;;;;9.77;100.00;102740.47;5019681;28;20425;-42
2023/05/31 00:35:25;;;;;;;5.90;5.50;;;;;;;9.77;100.00;102743.13;5018724;28;20480;-42
2023/05/31 00:37:53;;;;;;;6.80;5.20;;;;;;;9.72;100.00;102734.75;5018578;28;20492;-43
2023/05/31 00:40:20;;;;;;;9.50;6.20;;;;;;;9.69;100.00;102735.03;5019580;28;20471;-43
2023/05/31 00:42:48;;;;;;;6.57;5.90;;;;;;;9.65;100.00;102723.81;5018212;28;20468;-42
2023/05/31 00:45:16;;;;;;;9.73;7.07;;;;;;;9.63;100.00;102740.94;5018708;28;20519;-42
2023/05/31 00:47:45;;;;;;;6.23;5.63;;;;;;;9.61;100.00;102732.25;5016054;28;20465;-42
2023/05/31 00:50:13;;;;;;;7.03;6.43;;;;;;;9.60;100.00;102738.53;5018725;28;20427;-47
2023/05/31 00:52:41;;;;;;;8.27;7.37;;;;;;;9.60;100.00;102728.72;5018666;28;20453;-45
2023/05/31 00:55:09;;;;;;;7.07;6.37;;;;;;;9.58;100.00;102728.03;5018757;28;20453;-44
2023/05/31 00:57:38;;;;;;;11.27;7.30;;;;;;;9.58;100.00;102724.53;5018402;28;20469;-46
2023/05/31 01:00:07;;;;;;;8.10;7.17;;;;;;;9.60;100.00;102728.72;5019276;28;20429;-47
2023/05/31 01:02:37;;;;;;;9.43;7.17;;;;;;;9.59;100.00;102724.38;5023340;28;20902;-44
2023/05/31 01:05:07;;;;;;;10.00;7.00;;;;;;;9.58;100.00;102730.72;5023082;28;20479;-46
2023/05/31 01:07:35;;;;;;;9.80;6.77;;;;;;;9.56;100.00;102724.66;5022668;28;20469;-46
2023/05/31 01:10:05;;;;;;;8.30;6.40;;;;;;;9.55;100.00;102724.81;5022117;28;20465;-43
2023/05/31 01:12:41;;;;;;;7.47;6.87;;;;;;;9.52;100.00;102725.09;5022641;28;20564;-41
2023/05/31 01:15:14;;;;;;;7.27;6.47;;;;;;;9.48;100.00;102719.22;5022677;28;20495;-45
2023/05/31 01:17:51;;;;;;;7.80;7.00;;;;;;;9.47;100.00;102725.50;5018500;28;20472;-45
2023/05/31 01:20:24;;;;;;;8.33;6.93;;;;;;;9.42;100.00;102730.44;5022646;28;20766;-43
2023/05/31 01:23:16;;;;;;;9.27;6.03;;;;;;;9.38;100.00;102729.00;5022215;28;20540;-45
2023/05/31 01:26:12;;;;;;;10.30;6.80;;;;;;;9.35;100.00;102729.28;5021964;28;20873;-48
2023/05/31 01:28:42;;;;;;;13.50;6.90;;;;;;;9.31;100.00;102728.75;5036290;28;20436;-43
2023/05/31 01:31:12;;;;;;;9.40;7.30;;;;;;;9.29;100.00;102730.69;5041901;28;20424;-44
2023/05/31 01:33:42;;;;;;;8.67;6.30;;;;;;;9.27;100.00;102726.50;5042356;28;20422;-45
2023/05/31 01:36:09;;;;;;;11.03;7.23;;;;;;;9.23;100.00;102728.59;5041477;28;20518;-44
2023/05/31 01:38:37;;;;;;;8.87;7.20;;;;;;;9.24;100.00;102724.97;5042163;28;20436;-46
2023/05/31 01:41:07;;;;;;;7.60;6.90;;;;;;;9.20;100.00;102725.41;5041623;28;20438;-44
2023/05/31 01:43:37;;;;;;;11.00;7.40;;;;;;;9.17;100.00;102721.16;5041631;28;20498;-44
2023/05/31 01:46:08;;;;;;;9.60;7.00;;;;;;;9.15;100.00;102720.47;5037537;28;20444;-45
2023/05/31 01:48:35;;;;;;;7.73;6.93;;;;;;;9.09;100.00;102721.03;5041787;28;20420;-42
2023/05/31 01:51:05;;;;;;;9.10;7.00;;;;;;;9.07;100.00;102720.34;5041243;28;20437;-44
2023/05/31 01:53:33;;;;;;;10.53;7.73;;;;;;;9.04;100.00;102720.63;5041804;28;20428;-44
2023/05/31 01:56:02;;;;;;;10.20;8.13;;;;;;;9.01;100.00;102712.91;5041101;28;21005;-45
2023/05/31 01:58:31;;;;;;;8.57;7.23;;;;;;;8.98;100.00;102715.84;5041739;28;20770;-43
2023/05/31 02:00:59;;;;;;;9.00;7.80;;;;;;;8.96;100.00;102715.13;5041632;28;20432;-46
2023/05/31 02:03:29;;;;;;;11.00;7.83;;;;;;;8.95;100.00;102710.81;5041519;28;20480;-43
2023/05/31 02:05:57;;;;;;;9.00;8.10;;;;;;;8.96;100.00;102715.13;5040556;28;20456;-45
2023/05/31 02:08:26;;;;;;;8.57;6.47;;;;;;;8.94;100.00;102708.25;5041832;28;20432;-42
2023/05/31 02:10:55;;;;;;;8.50;7.50;;;;;;;8.92;100.00;102710.22;5040527;28;20438;-42
2023/05/31 02:13:26;;;;;;;7.87;6.83;;;;;;;8.88;100.00;102709.66;5041736;28;20416;-43
2023/05/31 02:15:55;;;;;;;9.20;7.40;;;;;;;8.87;100.00;102707.97;5039272;28;20448;-43
2023/05/31 02:18:26;;;;;;;9.17;7.10;;;;;;;8.84;100.00;102713.59;5040655;28;20432;-42
2023/05/31 02:20:56;;;;;;;8.03;7.33;;;;;;;8.83;100.00;102717.22;5041083;28;20423;-43
2023/05/31 02:23:23;;;;;;;8.17;6.60;;;;;;;8.80;100.00;102713.03;5041339;28;21008;-44
2023/05/31 02:25:51;;;;;;;12.60;8.17;;;;;;;8.78;100.00;102709.63;5040327;28;20824;-43
2023/05/31 02:28:19;;;;;;;9.47;8.50;;;;;;;8.79;100.00;102706.00;5041138;28;20452;-42
2023/05/31 02:30:55;;;;;;;12.97;7.83;;;;;;;8.78;100.00;102711.47;5040829;28;20432;-42
2023/05/31 02:33:23;;;;;;;11.03;8.07;;;;;;;8.80;100.00;102717.50;5041049;28;20414;-44
2023/05/31 02:35:50;;;;;;;7.43;6.60;;;;;;;8.77;100.00;102715.94;5041212;28;20448;-46
2023/05/31 02:38:20;;;;;;;8.33;7.40;;;;;;;8.77;100.00;102726.59;5041695;28;20463;-43
2023/05/31 02:40:48;;;;;;;7.47;6.60;;;;;;;8.76;100.00;102718.75;5040958;28;20436;-43
2023/05/31 02:43:16;;;;;;;6.70;6.03;;;;;;;8.77;100.00;102717.78;5041018;28;20571;-44
2023/05/31 02:45:44;;;;;;;10.50;6.50;;;;;;;8.76;100.00;102716.06;5040788;28;20451;-44
2023/05/31 02:48:11;;;;;;;7.70;7.10;;;;;;;8.76;100.00;102714.25;5037070;28;20578;-43
2023/05/31 02:50:40;;;;;;;7.90;7.03;;;;;;;8.76;100.00;102716.06;5040565;28;20482;-43
2023/05/31 02:53:07;;;;;;;11.87;7.80;;;;;;;8.75;100.00;102711.75;5041010;28;20428;-44
2023/05/31 02:55:38;;;;;;;10.20;7.30;;;;;;;8.76;100.00;102716.06;5040741;28;20452;-43
2023/05/31 02:58:06;;;;;;;8.17;7.40;;;;;;;8.78;100.00;102720.28;5039954;28;20491;-43
2023/05/31 03:00:34;;;;;;;10.77;7.37;;;;;;;8.81;100.00;102716.53;5041168;28;20522;-43
2023/05/31 03:03:02;;;;;;;11.20;7.83;;;;;;;8.83;100.00;102717.22;5041103;28;20468;-43
2023/05/31 03:05:31;;;;;;;8.90;7.00;;;;;;;8.81;100.00;102709.38;5041173;28;20464;-46
2023/05/31 03:07:59;;;;;;;14.13;8.77;;;;;;;8.85;100.00;102712.59;5040644;28;20515;-45
2023/05/31 03:10:26;;;;;;;10.43;9.10;;;;;;;8.90;100.00;102710.34;5041694;28;20439;-43
2023/05/31 03:12:55;;;;;;;9.90;6.87;;;;;;;8.96;100.00;102701.81;5040827;28;20451;-45
2023/05/31 03:15:23;;;;;;;9.70;7.63;;;;;;;8.99;100.00;102704.19;5039247;28;20816;-43
2023/05/31 03:17:52;;;;;;;12.10;7.50;;;;;;;9.03;100.00;102707.44;5039140;28;20472;-43
2023/05/31 03:20:20;;;;;;;8.17;7.37;;;;;;;9.07;100.00;102709.69;5040518;28;20467;-43
2023/05/31 03:22:48;;;;;;;7.97;7.17;;;;;;;9.11;100.00;102708.41;5040452;28;20508;-43
2023/05/31 03:25:16;;;;;;;11.13;8.20;;;;;;;9.17;100.00;102715.84;5040441;28;20478;-44
2023/05/31 03:27:44;;;;;;;8.10;7.40;;;;;;;9.24;100.00;102702.81;5039214;28;20456;-44
2023/05/31 03:30:14;;;;;;;9.00;8.20;;;;;;;9.32;100.00;102702.94;5040756;28;20437;-43
2023/05/31 03:32:42;;;;;;;9.67;7.73;;;;;;;9.39;100.00;102710.25;5040259;28;20423;-40
2023/05/31 03:35:10;;;;;;;11.37;8.10;;;;;;;9.49;100.00;102720.91;5040656;28;20452;-44
2023/05/31 03:37:38;;;;;;;10.40;8.77;;;;;;;9.58;100.00;102716.53;5040193;28;20490;-43
2023/05/31 03:40:07;;;;;;;11.60;8.30;;;;;;;9.64;100.00;102708.84;5040700;28;20432;-43
2023/05/31 03:42:35;;;;;;;9.03;7.70;;;;;;;9.74;100.00;102716.78;5040595;28;20933;-43
2023/05/31 03:45:03;;;;;;;9.30;7.50;;;;;;;9.87;100.00;102714.66;5040665;28;20500;-43
2023/05/31 03:47:32;;;;;;;12.70;8.13;;;;;;;9.99;100.00;102705.50;5038232;28;20554;-44
2023/05/31 03:50:00;;;;;;;10.60;8.40;;;;;;;10.10;100.00;102705.31;5040591;28;20432;-43
2023/05/31 03:52:28;;;;;;;8.80;7.97;;;;;;;10.21;100.00;102707.88;5040168;28;20519;-43
2023/05/31 03:54:56;;;;;;;9.10;8.20;;;;;;;10.34;100.00;102695.03;5040813;28;20452;-43
2023/05/31 03:57:24;;;;;;;8.47;7.67;;;;;;;10.45;100.00;102700.16;5039755;28;20464;-43
2023/05/31 03:59:51;;;;;;;9.00;7.90;;;;;;;10.55;100.00;102700.94;5039889;28;21108;-42
2023/05/31 04:02:19;;;;;;;10.40;9.20;;;;;;;10.70;100.00;102697.78;5039749;28;20443;-41
2023/05/31 04:04:49;;;;;;;10.70;8.97;;;;;;;10.85;100.00;102697.13;5040002;28;20483;-41
2023/05/31 04:07:16;;;;;;;10.60;9.30;;;;;;;10.98;100.00;102697.59;5039241;28;20466;-41
2023/05/31 04:09:44;;;;;;;9.60;8.60;;;;;;;11.11;100.00;102695.38;5039853;28;20910;-41
2023/05/31 04:12:12;;;;;;;8.73;7.90;;;;;;;11.24;100.00;102696.81;5039389;28;20517;-44
2023/05/31 04:14:40;;;;;;;8.70;7.80;;;;;;;11.38;100.00;102689.09;5040302;28;20456;-48
2023/05/31 04:17:08;;;;;;;9.20;8.40;;;;;;;11.49;100.00;102699.56;5037799;28;20538;-45
2023/05/31 04:19:36;;;;;;;10.87;9.30;;;;;;;11.72;100.00;102699.06;5039848;28;20781;-41
2023/05/31 04:22:05;;;;;;;8.37;7.53;;;;;;;11.99;100.00;102694.41;5039411;28;20459;-41
2023/05/31 04:24:33;;;;;;;9.70;8.40;;;;;;;12.49;100.00;102693.63;5039378;28;21258;-40
2023/05/31 04:27:03;;;;;;;8.70;7.90;;;;;;;13.64;100.00;102695.34;5039618;28;20471;-44
2023/05/31 04:29:31;;;;;;;7.57;6.87;;;;;;;14.60;100.00;102687.19;5038694;28;20420;-42
2023/05/31 04:31:59;;;;;;;6.70;6.03;;;;;;;16.02;100.00;102671.06;5038079;28;20435;-41
2023/05/31 04:34:28;;;;;;;7.47;6.80;;;;;;;17.41;100.00;102677.00;5038879;28;20523;-42
2023/05/31 04:36:57;;;;;;;6.40;5.80;;;;;;;18.59;100.00;102669.69;5041667;28;20486;-41
2023/05/31 04:39:27;;;;;;;6.63;6.03;;;;;;;19.34;100.00;102661.28;5042746;28;20447;-42
2023/05/31 04:41:55;;;;;;;6.80;6.17;;;;;;;20.34;100.00;102671.75;5042975;28;20431;-42
2023/05/31 04:44:23;;;;;;;6.90;6.17;;;;;;;21.06;100.00;102656.97;5043126;28;20524;-41
2023/05/31 04:46:51;;;;;;;8.80;6.20;;;;;;;21.30;100.00;102663.50;5040849;28;20477;-41
2023/05/31 04:49:19;;;;;;;6.03;5.53;;;;;;;21.85;100.00;102656.31;5042475;28;20467;-44
2023/05/31 04:51:47;;;;;;;5.60;4.87;;;;;;;22.25;100.00;102670.31;5042718;28;20754;-42
2023/05/31 04:54:14;;;;;;;5.53;5.00;;;;;;;22.74;96.91;102658.38;5042895;28;20434;-42
2023/05/31 04:56:44;;;;;;;5.13;4.83;;;;;;;23.06;95.48;102665.22;5042423;28;20464;-42
2023/05/31 04:59:11;;;;;;;6.57;6.10;;;;;;;22.93;83.29;102660.00;5042647;28;20435;-41
2023/05/31 05:01:40;;;;;;;6.03;5.53;;;;;;;23.41;88.10;102662.63;5042738;28;20963;-42
2023/05/31 05:04:08;;;;;;;5.60;5.27;;;;;;;23.75;78.66;102658.22;5042580;28;20502;-43
2023/05/31 05:06:37;;;;;;;6.20;5.43;;;;;;;23.89;79.84;102659.66;5042622;28;20467;-42
2023/05/31 05:09:05;;;;;;;5.70;5.30;;;;;;;23.89;66.65;102655.03;5042004;28;20494;-41
2023/05/31 05:11:33;;;;;;;5.70;5.30;;;;;;;23.84;73.70;102654.06;5042151;28;20435;-42
2023/05/31 05:14:03;;;;;;;5.40;5.10;;;;;;;23.68;73.50;102652.91;5042309;28;20424;-41
2023/05/31 05:16:31;;;;;;;6.27;5.80;;;;;;;23.25;72.57;102661.38;5042079;28;20443;-42
2023/05/31 05:18:59;;;;;;;5.43;5.03;;;;;;;23.20;75.51;102666.69;5033402;28;20481;-42
2023/05/31 05:21:28;;;;;;;7.87;5.30;;;;;;;23.40;73.94;102656.34;5041798;28;20455;-43
2023/05/31 05:23:56;;;;;;;5.30;4.90;;;;;;;23.95;69.59;102651.34;5043377;28;20566;-43
2023/05/31 05:26:25;;;;;;;6.50;5.90;;;;;;;24.60;70.84;102643.72;5041212;28;20463;-43
2023/05/31 05:28:53;;;;;;;5.87;5.00;;;;;;;25.24;66.68;102647.03;5041759;28;20471;-44
2023/05/31 05:31:22;;;;;;;6.00;5.50;;;;;;;25.46;63.37;102652.56;5002846;28;20437;-45
2023/05/31 05:33:51;;;;;;;6.20;5.73;;;;;;;26.43;58.42;102650.97;5002807;28;20437;-43
2023/05/31 05:36:19;;;;;;;6.37;5.07;;;;;;;26.92;59.95;102646.28;5002799;28;20457;-43
2023/05/31 05:38:47;;;;;;;12.37;4.93;;;;;;;27.12;53.34;102640.97;5001592;28;20474;-43
2023/05/31 05:41:15;;;;;;;5.20;4.80;;;;;;;27.44;56.36;102649.22;5002772;28;20425;-45
2023/05/31 05:43:43;;;;;;;4.97;4.57;;;;;;;27.88;53.92;102649.75;5002476;28;20442;-42
2023/05/31 05:46:11;;;;;;;5.17;4.63;;;;;;;28.25;53.63;102642.28;5001830;28;20446;-42
2023/05/31 05:48:40;;;;;;;5.87;5.30;;;;;;;28.16;51.70;102641.16;4999289;28;20639;-42
2023/05/31 05:51:08;;;;;;;5.43;4.93;;;;;;;27.48;51.71;102644.03;5003088;28;20606;-42
2023/05/31 05:53:36;;;;;;;4.90;4.50;;;;;;;27.02;51.12;102640.06;5002085;28;20230;-42
2023/05/31 05:56:03;;;;;;;4.50;4.20;;;;;;;27.32;53.18;102637.59;5001941;28;20215;-42
2023/05/31 05:58:31;;;;;;;6.23;4.60;;;;;;;27.18;52.12;102633.66;5001911;28;20511;-42
2023/05/31 06:00:59;;;;;;;5.27;4.60;;;;;;;26.94;52.21;102642.19;5002998;28;20436;-42
2023/05/31 06:03:29;;;;;;;4.30;4.00;;;;;;;26.78;52.01;102645.03;5002635;28;20465;-43
2023/05/31 06:05:59;;;;;;;5.53;4.60;;;;;;;26.64;49.48;102636.38;5001880;28;20477;-43
2023/05/31 06:08:26;;;;;;;4.90;4.13;;;;;;;26.96;48.02;102632.91;5001757;28;20699;-44
2023/05/31 06:10:54;;;;;;;4.77;4.23;;;;;;;26.81;50.40;102628.94;5002449;28;20811;-41
2023/05/31 06:13:22;;;;;;;3.17;2.97;;;;;;;26.26;46.98;102637.34;5002457;28;20441;-42
2023/05/31 06:15:50;;;;;;;3.60;3.30;;;;;;;25.47;44.28;102638.69;5001763;28;20815;-45
2023/05/31 06:18:18;;;;;;;4.10;2.90;;;;;;;25.47;42.55;102641.41;4999124;28;20453;-43
2023/05/31 06:20:45;;;;;;;3.30;3.10;;;;;;;25.01;44.41;102637.09;5002292;28;20559;-42
2023/05/31 06:23:15;;;;;;;2.90;2.80;;;;;;;24.85;43.52;102635.16;5001502;28;20496;-41
2023/05/31 06:25:42;;;;;;;4.10;3.20;;;;;;;24.88;43.69;102628.41;5001419;28;20477;-43
2023/05/31 06:28:10;;;;;;;3.53;3.23;;;;;;;25.40;46.61;102632.56;5027433;28;20985;-42
2023/05/31 06:30:38;;;;;;;3.50;3.30;;;;;;;25.97;43.51;102633.13;5041001;28;20424;-42
2023/05/31 06:33:06;;;;;;;3.20;2.90;;;;;;;25.82;42.90;102630.19;5040597;28;20436;-42
2023/05/31 06:35:34;;;;;;;2.90;2.70;;;;;;;26.23;41.23;102632.38;5040868;28;20455;-43
2023/05/31 06:38:03;;;;;;;4.90;2.60;;;;;;;26.50;43.34;102635.16;5040423;28;20463;-41
2023/05/31 06:40:33;;;;;;;3.73;2.40;;;;;;;27.02;43.35;102623.63;5041027;28;20489;-43
2023/05/31 06:43:00;;;;;;;3.13;2.90;;;;;;;27.43;40.87;102626.47;5040402;28;20968;-43
2023/05/31 06:45:28;;;;;;;2.50;2.37;;;;;;;28.01;42.08;102619.94;5040959;28;20220;-42
2023/05/31 06:47:57;;;;;;;2.80;2.60;;;;;;;28.16;41.96;102616.44;5036639;28;20221;-42
2023/05/31 06:50:27;;;;;;;3.50;3.30;;;;;;;28.64;41.15;102615.22;5040932;28;20570;-42
2023/05/31 06:52:55;;;;;;;3.20;3.00;;;;;;;28.69;38.76;102626.22;5040678;28;20204;-42
2023/05/31 06:55:23;;;;;;;3.00;2.73;;;;;;;29.12;39.85;102619.38;5040311;28;20210;-42
2023/05/31 06:57:52;;;;;;;3.17;2.63;;;;;;;27.96;37.78;102622.63;5039687;28;20282;-42
2023/05/31 07:00:20;;;;;;;3.10;2.90;;;;;;;27.39;39.81;102618.97;5041102;28;20748;-42
2023/05/31 07:02:48;;;;;;;3.70;3.50;;;;;;;27.27;40.12;102618.38;5040053;28;20197;-44
2023/05/31 07:05:16;;;;;;;3.23;3.03;;;;;;;27.40;42.27;102626.94;5039795;28;20255;-43
2023/05/31 07:07:43;;;;;;;3.00;2.80;;;;;;;27.19;39.38;102608.72;5039447;28;20232;-45
2023/05/31 07:10:11;;;;;;;3.10;2.90;;;;;;;26.96;40.38;102611.81;5037631;28;20201;-43
2023/05/31 07:12:39;;;;;;;3.30;3.10;;;;;;;26.35;41.14;102629.50;5036821;28;20196;-45
2023/05/31 07:15:09;;;;;;;3.20;2.90;;;;;;;25.80;42.25;102622.25;5037322;28;20212;-43
2023/05/31 07:17:37;;;;;;;3.37;3.10;;;;;;;25.58;43.95;102620.56;5034385;28;20294;-44
2023/05/31 07:20:08;;;;;;;3.70;2.73;;;;;;;25.42;44.07;102618.66;5038058;28;20193;-42
2023/05/31 07:22:36;;;;;;;3.50;3.17;;;;;;;25.42;43.89;102622.19;5037327;28;20450;-47
2023/05/31 07:25:04;;;;;;;3.23;2.90;;;;;;;25.41;43.28;102617.00;5037737;28;20506;-45
2023/05/31 07:27:32;;;;;;;2.80;2.60;;;;;;;25.17;43.02;102619.91;5031598;28;20514;-45
2023/05/31 07:29:59;;;;;;;8.77;4.00;;;;;;;24.96;44.53;102617.91;5036849;28;20805;-45
2023/05/31 07:32:29;;;;;;;2.97;2.80;;;;;;;25.03;44.55;102615.03;5037147;28;20842;-47
2023/05/31 07:34:57;;;;;;;5.17;3.63;;;;;;;24.33;46.64;102619.97;5037670;28;20492;-45
2023/05/31 07:37:31;;;;;;;3.50;3.27;;;;;;;24.17;45.73;102613.38;5036819;28;20452;-44
2023/05/31 07:39:59;;;;;;;3.40;3.10;;;;;;;23.89;47.29;102602.44;5037343;28;20432;-43
2023/05/31 07:42:28;;;;;;;4.23;3.93;;;;;;;23.98;48.08;102601.81;5037811;28;20474;-45
2023/05/31 07:44:56;;;;;;;5.20;4.70;;;;;;;23.42;49.75;102601.63;5037167;28;20502;-45
2023/05/31 07:47:24;;;;;;;4.73;3.67;;;;;;;23.22;51.83;102601.13;5036955;28;20578;-42
2023/05/31 07:49:53;;;;;;;7.27;4.50;;;;;;;23.59;50.60;102606.16;5037298;28;20427;-46
2023/05/31 07:52:21;;;;;;;4.60;4.30;;;;;;;22.95;51.70;102607.00;5037307;28;20436;-42
2023/05/31 07:54:49;;;;;;;5.10;4.60;;;;;;;22.70;54.98;102609.06;5037766;28;20478;-44
2023/05/31 07:57:17;;;;;;;4.70;4.30;;;;;;;22.38;56.33;102599.47;5037138;28;20459;-45
2023/05/31 07:59:45;;;;;;;4.70;4.27;;;;;;;21.92;57.89;102600.06;5037537;28;20936;-44
2023/05/31 08:02:13;;;;;;;5.17;4.70;;;;;;;22.13;58.72;102594.16;5037112;28;20467;-43
2023/05/31 08:04:41;;;;;;;5.57;4.73;;;;;;;22.29;61.37;102598.13;5037574;28;20490;-46
2023/05/31 08:07:10;;;;;;;8.40;4.90;;;;;;;22.17;62.18;102592.63;5037803;28;20494;-42
2023/05/31 08:09:38;;;;;;;5.37;4.97;;;;;;;22.29;64.75;102598.13;5036610;28;20446;-42
2023/05/31 08:12:07;;;;;;;5.60;5.10;;;;;;;22.10;65.22;102588.34;5037594;28;20577;-46
2023/05/31 08:14:35;;;;;;;8.07;4.60;;;;;;;21.68;67.41;102592.78;5038489;28;20463;-43
2023/05/31 08:17:02;;;;;;;7.23;4.97;;;;;;;21.36;69.88;102590.16;5038035;28;20431;-42
2023/05/31 08:19:30;;;;;;;6.00;5.50;;;;;;;21.22;75.63;102585.09;5029894;28;20502;-42
2023/05/31 08:21:58;;;;;;;6.57;5.73;;;;;;;21.84;69.62;102581.31;5037887;28;20454;-41
2023/05/31 08:24:28;;;;;;;6.33;5.50;;;;;;;21.42;74.68;102583.00;5037047;28;20447;-44
2023/05/31 08:26:56;;;;;;;7.90;5.40;;;;;;;21.53;74.49;102590.44;5031893;28;20487;-43
2023/05/31 08:29:24;;;;;;;10.67;6.03;;;;;;;22.12;71.67;102583.50;5037193;28;20467;-45
2023/05/31 08:31:52;;;;;;;8.87;6.10;;;;;;;22.32;71.13;102578.63;5037474;28;20463;-43
2023/05/31 08:34:20;;;;;;;9.13;6.30;;;;;;;22.92;67.89;102579.44;5036886;28;20439;-42
2023/05/31 08:36:48;;;;;;;9.63;6.50;;;;;;;22.84;67.01;102580.63;5037272;28;20432;-43
2023/05/31 08:39:15;;;;;;;7.53;6.50;;;;;;;23.08;64.85;102570.59;5036986;28;20502;-43
2023/05/31 08:41:53;;;;;;;6.67;5.57;;;;;;;23.33;64.28;102564.91;5036727;28;20435;-43
2023/05/31 08:44:21;;;;;;;10.03;5.80;;;;;;;23.56;61.33;102559.50;5037566;28;20451;-42
2023/05/31 08:46:49;;;;;;;5.73;5.20;;;;;;;23.13;61.85;102562.53;5036991;28;20467;-41
2023/05/31 08:49:19;;;;;;;5.80;5.23;;;;;;;22.74;63.57;102566.75;5036648;28;20539;-47
2023/05/31 08:51:49;;;;;;;6.80;5.20;;;;;;;22.96;61.41;102573.31;5036946;28;20949;-46
2023/05/31 08:54:18;;;;;;;5.60;5.20;;;;;;;22.41;63.64;102561.78;5036785;28;20427;-42
2023/05/31 08:56:49;;;;;;;6.70;5.10;;;;;;;22.46;64.81;102563.81;5037596;28;20424;-44
2023/05/31 08:59:18;;;;;;;7.73;5.20;;;;;;;21.43;67.57;102573.81;5036346;28;20455;-44
2023/05/31 09:01:47;;;;;;;6.80;5.33;;;;;;;20.96;76.11;102559.84;5036745;28;20432;-44
2023/05/31 09:04:15;;;;;;;6.37;5.77;;;;;;;20.89;76.77;102567.19;5037416;28;20432;-46
2023/05/31 09:06:44;;;;;;;7.80;5.60;;;;;;;20.69;84.51;102565.69;5036916;28;20988;-44
2023/05/31 09:09:12;;;;;;;10.63;8.00;;;;;;;20.90;84.61;102559.88;5037295;28;20452;-46
2023/05/31 09:11:40;;;;;;;14.07;6.60;;;;;;;20.95;91.57;102557.31;5037269;28;20428;-43
2023/05/31 09:14:09;;;;;;;9.60;6.30;;;;;;;21.17;86.89;102555.94;5037286;28;20435;-44
2023/05/31 09:16:37;;;;;;;7.30;5.83;;;;;;;21.50;83.31;102559.13;5036380;28;20481;-43
2023/05/31 09:19:06;;;;;;;7.63;6.13;;;;;;;22.00;76.57;102559.84;5037237;28;20463;-43
2023/05/31 09:21:41;;;;;;;10.50;6.60;;;;;;;22.29;71.25;102550.03;5037718;28;20485;-44
2023/05/31 09:24:10;;;;;;;6.47;5.87;;;;;;;22.72;68.88;102552.56;5040628;28;20848;-47
2023/05/31 09:26:47;;;;;;;6.50;5.90;;;;;;;22.45;69.04;102546.66;5037968;28;21008;-45
2023/05/31 09:29:17;;;;;;;8.13;5.77;;;;;;;22.61;68.44;102543.28;5039233;28;20462;-42
2023/05/31 09:31:45;;;;;;;6.70;6.20;;;;;;;22.63;65.85;102540.34;5040345;28;20454;-45
2023/05/31 09:34:24;;;;;;;6.20;5.57;;;;;;;22.55;66.32;102535.22;5041456;28;20435;-41
2023/05/31 09:36:52;;;;;;;6.63;6.00;;;;;;;21.98;68.29;102533.97;5041927;28;20477;-42
2023/05/31 09:39:20;;;;;;;8.30;7.50;;;;;;;22.07;69.63;102531.75;5041706;28;20494;-41
2023/05/31 09:41:50;;;;;;;12.03;6.10;;;;;;;22.26;70.62;102536.06;5042008;28;20550;-42
2023/05/31 09:44:19;;;;;;;7.10;5.97;;;;;;;22.61;67.33;102532.41;5041825;28;20482;-43
2023/05/31 09:46:47;;;;;;;7.43;6.73;;;;;;;22.41;66.35;102533.75;5041810;28;20475;-45
2023/05/31 09:49:15;;;;;;;7.00;6.37;;;;;;;22.46;65.82;102536.63;5041298;28;20455;-43
2023/05/31 09:51:51;;;;;;;7.43;4.43;;;;;;;22.01;65.67;102525.34;5041309;28;20427;-43
2023/05/31 09:54:22;;;;;;;5.93;5.53;;;;;;;21.40;74.47;102520.81;5041172;28;20515;-44
2023/05/31 09:56:52;;;;;;;8.83;5.90;;;;;;;21.50;79.70;102518.41;5040814;28;20408;-41
2023/05/31 09:59:21;;;;;;;6.30;5.80;;;;;;;21.57;75.84;102520.22;5040696;28;20818;-47
2023/05/31 10:01:51;;;;;;;5.93;5.30;;;;;;;21.32;76.65;102513.00;5041191;28;20921;-43
2023/05/31 10:04:19;;;;;;;5.70;5.20;;;;;;;21.87;75.50;102518.38;5040584;28;20511;-44
2023/05/31 10:06:49;;;;;;;9.30;6.13;;;;;;;22.19;72.99;102519.84;5039756;28;20476;-46
2023/05/31 10:09:17;;;;;;;10.47;5.90;;;;;;;22.41;69.97;102517.44;5041428;28;20992;-46
2023/05/31 10:11:51;;;;;;;10.63;5.27;;;;;;;22.78;69.67;102504.56;5040868;28;20430;-42
2023/05/31 10:14:25;;;;;;;8.77;6.47;;;;;;;23.30;68.24;102502.75;5041550;28;20466;-43
2023/05/31 10:16:56;;;;;;;15.43;6.07;;;;;;;23.31;64.31;102507.16;5042194;28;20659;-41
2023/05/31 10:19:27;;;;;;;6.17;5.73;;;;;;;23.32;66.58;102506.94;5040763;28;20546;-44
2023/05/31 10:21:59;;;;;;;7.00;5.60;;;;;;;23.47;65.02;102501.84;5040673;28;20461;-47
2023/05/31 10:24:31;;;;;;;8.93;5.30;;;;;;;23.62;62.68;102495.91;5039395;28;20436;-42
2023/05/31 10:27:03;;;;;;;7.30;5.90;;;;;;;23.31;63.70;102490.81;5039892;28;20456;-41
2023/05/31 10:29:37;;;;;;;8.73;6.37;;;;;;;22.94;66.61;102488.34;5039395;28;20463;-41
2023/05/31 10:32:13;;;;;;;6.47;5.70;;;;;;;22.80;66.60;102486.09;5039744;28;20408;-43
2023/05/31 10:34:41;;;;;;;7.93;5.40;;;;;;;23.09;69.57;102477.81;5040188;28;20459;-43
2023/05/31 10:37:11;;;;;;;9.17;5.80;;;;;;;23.47;65.24;102482.78;5039500;28;20428;-41
2023/05/31 10:39:44;;;;;;;8.07;6.10;;;;;;;23.32;66.90;102471.53;5039081;28;20501;-43
2023/05/31 10:42:18;;;;;;;7.47;5.60;;;;;;;23.49;65.09;102483.38;5039611;28;20607;-46
2023/05/31 10:44:58;;;;;;;8.43;6.83;;;;;;;23.80;65.29;102481.25;5039344;28;20487;-44
2023/05/31 10:47:34;;;;;;;6.63;6.03;;;;;;;23.65;61.97;102487.25;5039343;28;20529;-44
2023/05/31 10:50:03;;;;;;;9.20;6.90;;;;;;;23.57;64.76;102480.25;5036558;28;20463;-47
2023/05/31 10:52:31;;;;;;;9.83;6.83;;;;;;;23.74;63.91;102479.50;5039546;28;21094;-42
2023/05/31 10:55:19;;;;;;;10.00;6.80;;;;;;;23.72;64.28;102478.91;5039640;28;20484;-44
2023/05/31 10:57:51;;;;;;;8.97;7.53;;;;;;;23.64;65.35;102482.84;5040543;28;20478;-42
2023/05/31 11:00:24;;;;;;;9.57;7.37;;;;;;;23.74;63.18;102487.69;5040524;28;20468;-44
2023/05/31 11:02:54;;;;;;;11.23;7.13;;;;;;;24.00;63.79;102477.03;5040032;28;20925;-42
2023/05/31 11:05:24;;;;;;;6.60;6.10;;;;;;;24.26;62.01;102474.78;5040973;28;20452;-45
2023/05/31 11:07:54;;;;;;;11.03;8.13;;;;;;;24.13;61.02;102470.50;5040795;28;20467;-42
2023/05/31 11:10:27;;;;;;;7.23;6.47;;;;;;;24.20;60.13;102471.97;5038790;28;20452;-45
2023/05/31 11:12:58;;;;;;;9.37;6.90;;;;;;;24.18;60.29;102476.03;5040302;28;20423;-42
2023/05/31 11:15:41;;;;;;;11.10;7.10;;;;;;;24.19;60.90;102462.13;5040157;28;20502;-45
2023/05/31 11:18:10;;;;;;;8.53;6.83;;;;;;;24.08;62.16;102464.91;5039638;28;20812;-44
2023/05/31 11:20:38;;;;;;;8.97;6.27;;;;;;;24.12;59.88;102453.31;5040114;28;20436;-43
2023/05/31 11:23:34;;;;;;;15.27;7.10;;;;;;;24.07;59.69;102455.09;5040098;28;20436;-42
2023/05/31 11:26:15;;;;;;;7.57;6.43;;;;;;;23.95;61.75;102463.31;5039816;28;20460;-44
2023/05/31 11:28:58;;;;;;;8.63;7.80;;;;;;;23.27;62.72;102471.41;5029151;28;20470;-47
2023/05/31 11:32:01;;;;;;;8.70;6.97;;;;;;;23.20;63.21;102468.00;5001151;28;20425;-42